createdAt,value
2022-10-10T00:00:47.821Z,10.76
2022-10-10T00:03:14.306Z,10.74
2022-10-10T00:05:41.084Z,10.56
2022-10-10T00:08:07.712Z,10.54
2022-10-10T00:10:34.706Z,10.68
2022-10-10T00:13:01.504Z,10.41
2022-10-10T00:15:28.018Z,10.53
2022-10-10T00:17:54.534Z,10.51
2022-10-10T00:20:21.386Z,10.56
2022-10-10T00:22:48.378Z,10.46
2022-10-10T00:25:15.168Z,10.40
2022-10-10T00:27:41.875Z,10.42
2022-10-10T00:30:09.343Z,10.21
2022-10-10T00:32:36.576Z,10.36
2022-10-10T00:35:04.301Z,10.22
2022-10-10T00:37:30.889Z,10.10
2022-10-10T00:39:57.344Z,10.21
2022-10-10T00:42:23.806Z,10.18
2022-10-10T00:45:19.970Z,10.24
2022-10-10T00:47:47.565Z,10.10
2022-10-10T00:50:14.167Z,10.12
2022-10-10T00:52:40.625Z,10.19
2022-10-10T00:55:07.449Z,10.08
2022-10-10T00:57:33.940Z,10.07
2022-10-10T01:00:00.976Z,9.94
2022-10-10T01:02:27.461Z,10.08
2022-10-10T01:04:53.920Z,10.37
2022-10-10T01:07:26.478Z,10.31
2022-10-10T01:09:55.483Z,10.20
2022-10-10T01:12:55.841Z,9.96
2022-10-10T01:15:31.285Z,10.18
2022-10-10T01:18:25.828Z,10.31
2022-10-10T01:21:04.634Z,10.31
2022-10-10T01:23:49.186Z,10.39
2022-10-10T01:26:40.459Z,10.34
2022-10-10T01:29:18.426Z,10.24
2022-10-10T01:31:46.985Z,10.41
2022-10-10T01:34:23.941Z,10.06
2022-10-10T01:37:04.948Z,10.48
2022-10-10T01:39:37.341Z,10.33
2022-10-10T01:42:08.124Z,10.41
2022-10-10T01:44:34.594Z,10.29
2022-10-10T01:47:01.059Z,10.22
2022-10-10T01:49:30.584Z,10.27
2022-10-10T01:52:29.401Z,10.20
2022-10-10T01:55:17.596Z,10.26
2022-10-10T01:58:02.715Z,10.27
2022-10-10T02:00:32.231Z,10.23
2022-10-10T02:03:05.846Z,10.26
2022-10-10T02:05:40.235Z,10.08
2022-10-10T02:08:10.330Z,10.20
2022-10-10T02:10:44.887Z,10.44
2022-10-10T02:13:12.609Z,10.25
2022-10-10T02:15:43.712Z,10.27
2022-10-10T02:18:12.011Z,10.22
2022-10-10T02:20:38.557Z,10.27
2022-10-10T02:23:05.900Z,10.33
2022-10-10T02:25:36.184Z,10.28
2022-10-10T02:28:07.237Z,10.27
2022-10-10T02:30:38.977Z,10.29
2022-10-10T02:33:06.922Z,10.33
2022-10-10T02:35:40.822Z,10.30
2022-10-10T02:38:10.044Z,10.15
2022-10-10T02:40:37.415Z,10.25
2022-10-10T02:43:05.550Z,10.36
2022-10-10T02:45:33.272Z,10.15
2022-10-10T02:48:03.282Z,10.12
2022-10-10T02:50:30.666Z,10.40
2022-10-10T02:52:57.746Z,10.02
2022-10-10T02:55:24.316Z,10.21
2022-10-10T02:57:51.670Z,10.00
2022-10-10T03:00:18.442Z,10.09
2022-10-10T03:02:46.199Z,10.15
2022-10-10T03:05:13.660Z,10.08
2022-10-10T03:07:40.168Z,10.23
2022-10-10T03:10:07.521Z,10.41
2022-10-10T03:12:37.182Z,10.25
2022-10-10T03:15:09.179Z,10.06
2022-10-10T03:17:37.817Z,10.29
2022-10-10T03:20:04.710Z,10.36
2022-10-10T03:22:31.141Z,10.11
2022-10-10T03:24:57.663Z,10.24
2022-10-10T03:27:24.129Z,10.19
2022-10-10T03:29:50.588Z,10.26
2022-10-10T03:32:17.087Z,10.37
2022-10-10T03:34:43.602Z,10.17
2022-10-10T03:37:10.200Z,10.18
2022-10-10T03:39:36.669Z,9.99
2022-10-10T03:42:03.355Z,10.20
2022-10-10T03:44:29.809Z,10.16
2022-10-10T03:46:56.300Z,10.09
2022-10-10T03:49:22.787Z,10.09
2022-10-10T03:51:49.307Z,10.00
2022-10-10T03:54:15.798Z,9.84
2022-10-10T03:56:42.309Z,9.89
2022-10-10T03:59:08.790Z,9.92
2022-10-10T04:01:35.270Z,9.99
2022-10-10T04:04:01.789Z,9.98
2022-10-10T04:06:28.512Z,10.04
2022-10-10T04:08:55.019Z,10.05
2022-10-10T04:11:21.532Z,10.24
2022-10-10T04:13:47.972Z,10.26
2022-10-10T04:16:14.436Z,10.34
2022-10-10T04:18:40.930Z,10.25
2022-10-10T04:21:07.393Z,10.16
2022-10-10T04:23:33.856Z,10.17
2022-10-10T04:26:00.384Z,10.08
2022-10-10T04:28:26.927Z,9.91
2022-10-10T04:30:56.242Z,10.06
2022-10-10T04:33:23.022Z,10.01
2022-10-10T04:35:50.386Z,9.93
2022-10-10T04:38:17.821Z,9.93
2022-10-10T04:40:44.346Z,9.94
2022-10-10T04:43:10.809Z,9.91
2022-10-10T04:45:37.853Z,9.83
2022-10-10T04:48:04.535Z,9.85
2022-10-10T04:50:31.107Z,9.76
2022-10-10T04:52:57.597Z,9.73
2022-10-10T04:55:24.088Z,9.98
2022-10-10T04:57:50.552Z,9.99
2022-10-10T05:00:17.211Z,9.82
2022-10-10T05:02:43.693Z,9.79
2022-10-10T05:05:10.204Z,9.84
2022-10-10T05:07:37.149Z,9.78
2022-10-10T05:10:04.274Z,9.78
2022-10-10T05:12:30.746Z,9.72
2022-10-10T05:14:57.182Z,9.67
2022-10-10T05:17:23.912Z,9.60
2022-10-10T05:19:51.592Z,9.78
2022-10-10T05:22:18.049Z,9.80
2022-10-10T05:24:44.633Z,9.79
2022-10-10T05:27:11.164Z,9.58
2022-10-10T05:29:37.861Z,9.60
2022-10-10T05:32:09.135Z,9.58
2022-10-10T05:34:36.765Z,9.42
2022-10-10T05:37:03.240Z,9.42
2022-10-10T05:39:29.757Z,9.58
2022-10-10T05:41:56.222Z,9.76
2022-10-10T05:44:22.709Z,9.62
2022-10-10T05:46:49.133Z,9.61
2022-10-10T05:49:15.697Z,9.71
2022-10-10T05:51:42.169Z,9.78
2022-10-10T05:54:08.881Z,9.62
2022-10-10T05:56:35.520Z,9.70
2022-10-10T05:59:02.378Z,9.73
2022-10-10T06:01:28.810Z,9.61
2022-10-10T06:03:56.135Z,9.64
2022-10-10T06:06:24.013Z,9.67
2022-10-10T06:08:50.633Z,9.78
2022-10-10T06:11:19.207Z,9.68
2022-10-10T06:13:47.364Z,9.66
2022-10-10T06:16:13.818Z,9.70
2022-10-10T06:18:40.248Z,9.86
2022-10-10T06:21:08.189Z,9.89
2022-10-10T06:23:35.044Z,9.85
2022-10-10T06:26:01.542Z,10.00
2022-10-10T06:28:28.047Z,10.02
2022-10-10T06:30:54.591Z,9.86
2022-10-10T06:33:21.121Z,9.98
2022-10-10T06:35:48.990Z,10.10
2022-10-10T06:38:16.766Z,10.03
2022-10-10T06:40:43.557Z,10.13
2022-10-10T06:43:14.422Z,10.17
2022-10-10T06:45:43.784Z,10.25
2022-10-10T06:48:11.111Z,10.36
2022-10-10T06:50:37.657Z,10.33
2022-10-10T06:53:04.689Z,10.39
2022-10-10T06:55:31.588Z,10.57
2022-10-10T06:57:58.181Z,10.45
2022-10-10T07:00:25.606Z,10.75
2022-10-10T07:02:52.690Z,10.54
2022-10-10T07:05:19.597Z,10.85
2022-10-10T07:07:46.067Z,10.94
2022-10-10T07:10:14.615Z,10.96
2022-10-10T07:12:44.812Z,10.78
2022-10-10T07:15:12.431Z,11.04
2022-10-10T07:17:38.986Z,11.24
2022-10-10T07:20:06.325Z,11.17
2022-10-10T07:22:33.071Z,11.03
2022-10-10T07:24:59.577Z,11.08
2022-10-10T07:27:26.021Z,11.36
2022-10-10T07:29:52.531Z,11.12
2022-10-10T07:32:18.969Z,11.40
2022-10-10T07:34:45.439Z,11.32
2022-10-10T07:37:11.912Z,11.47
2022-10-10T07:39:38.389Z,11.39
2022-10-10T07:42:04.865Z,11.70
2022-10-10T07:44:34.392Z,11.75
2022-10-10T07:47:01.237Z,12.02
2022-10-10T07:49:27.764Z,12.18
2022-10-10T07:51:58.920Z,12.10
2022-10-10T07:54:28.320Z,12.22
2022-10-10T07:56:54.737Z,12.24
2022-10-10T07:59:21.406Z,11.95
2022-10-10T08:01:47.967Z,12.52
2022-10-10T08:04:14.519Z,12.21
2022-10-10T08:06:41.027Z,12.87
2022-10-10T08:09:07.482Z,12.76
2022-10-10T08:11:34.010Z,12.51
2022-10-10T08:14:00.474Z,12.84
2022-10-10T08:16:27.735Z,12.78
2022-10-10T08:18:54.202Z,13.16
2022-10-10T08:21:20.705Z,13.13
2022-10-10T08:23:47.371Z,13.29
2022-10-10T08:26:15.838Z,13.26
2022-10-10T08:28:42.958Z,13.10
2022-10-10T08:31:12.505Z,13.43
2022-10-10T08:33:41.512Z,13.86
2022-10-10T08:36:10.081Z,13.57
2022-10-10T08:38:36.945Z,14.09
2022-10-10T08:41:15.142Z,14.03
2022-10-10T08:43:46.220Z,14.36
2022-10-10T08:46:19.790Z,14.06
2022-10-10T08:48:46.842Z,13.77
2022-10-10T08:51:20.594Z,14.03
2022-10-10T08:53:52.214Z,14.40
2022-10-10T08:56:32.676Z,14.09
2022-10-10T08:59:05.256Z,14.20
2022-10-10T09:01:35.819Z,14.51
2022-10-10T09:04:22.261Z,14.66
2022-10-10T09:07:18.491Z,14.63
2022-10-10T09:10:09.656Z,14.82
2022-10-10T09:12:49.268Z,15.36
2022-10-10T09:15:26.227Z,15.45
2022-10-10T09:18:26.617Z,15.32
2022-10-10T09:20:59.621Z,15.58
2022-10-10T09:23:35.944Z,15.50
2022-10-10T09:26:08.844Z,15.39
2022-10-10T09:28:42.455Z,15.92
2022-10-10T09:31:24.689Z,16.11
2022-10-10T09:33:59.795Z,15.84
2022-10-10T09:36:31.920Z,16.27
2022-10-10T09:39:16.253Z,16.32
2022-10-10T09:41:47.353Z,16.70
2022-10-10T09:44:15.346Z,16.58
2022-10-10T09:46:42.017Z,17.02
2022-10-10T09:49:10.613Z,17.26
2022-10-10T09:51:37.041Z,17.21
2022-10-10T09:54:05.339Z,17.11
2022-10-10T09:56:37.837Z,17.00
2022-10-10T09:59:04.364Z,17.07
2022-10-10T10:01:32.959Z,17.13
2022-10-10T10:04:27.607Z,17.33
2022-10-10T10:07:08.865Z,17.10
2022-10-10T10:09:35.346Z,17.21
2022-10-10T10:12:02.185Z,17.17
2022-10-10T10:14:31.244Z,18.10
2022-10-10T10:17:10.164Z,18.34
2022-10-10T10:19:40.473Z,17.92
2022-10-10T10:22:26.935Z,17.64
2022-10-10T10:24:54.083Z,17.42
2022-10-10T10:27:22.876Z,17.73
2022-10-10T10:29:54.652Z,18.13
2022-10-10T10:32:33.453Z,18.36
2022-10-10T10:35:14.338Z,18.51
2022-10-10T10:37:47.746Z,18.22
2022-10-10T10:40:29.280Z,18.54
2022-10-10T10:43:10.918Z,18.07
2022-10-10T10:46:08.885Z,18.52
2022-10-10T10:49:04.429Z,18.68
2022-10-10T10:52:00.684Z,19.26
2022-10-10T10:54:45.541Z,18.77
2022-10-10T10:58:04.703Z,18.51
2022-10-10T11:01:23.156Z,18.30
2022-10-10T11:05:16.346Z,18.28
2022-10-10T11:06:32.351Z,18.91
2022-10-10T11:09:54.333Z,18.42
2022-10-10T11:12:26.922Z,18.37
2022-10-10T11:15:00.817Z,18.78
2022-10-10T11:17:36.261Z,18.63
2022-10-10T11:20:06.841Z,18.95
2022-10-10T11:22:46.651Z,18.95
2022-10-10T11:25:23.841Z,19.09
2022-10-10T11:27:55.458Z,18.98
2022-10-10T11:30:23.800Z,18.80
2022-10-10T11:32:59.147Z,18.53
2022-10-10T11:35:48.952Z,18.14
2022-10-10T11:38:22.322Z,19.08
2022-10-10T11:41:12.200Z,18.87
2022-10-10T11:43:54.776Z,18.61
2022-10-10T11:46:38.029Z,18.95
2022-10-10T11:49:16.775Z,18.75
2022-10-10T11:52:35.414Z,18.48
2022-10-10T11:55:09.628Z,18.83
2022-10-10T11:57:40.818Z,19.44
2022-10-10T12:00:13.064Z,19.28
2022-10-10T12:02:42.969Z,19.54
2022-10-10T12:05:30.070Z,18.89
2022-10-10T12:07:56.458Z,18.96
2022-10-10T12:10:31.954Z,18.86
2022-10-10T12:13:06.168Z,18.96
2022-10-10T12:15:39.949Z,19.02
2022-10-10T12:18:23.479Z,18.89
2022-10-10T12:20:49.928Z,19.44
2022-10-10T12:23:30.228Z,20.16
2022-10-10T12:25:56.762Z,19.06
2022-10-10T12:28:30.901Z,19.44
2022-10-10T12:30:58.673Z,19.81
2022-10-10T12:33:28.392Z,18.85
2022-10-10T12:35:54.971Z,18.67
2022-10-10T12:38:23.905Z,18.76
2022-10-10T12:41:09.911Z,19.01
2022-10-10T12:43:38.153Z,19.14
2022-10-10T12:46:30.961Z,18.53
2022-10-10T12:49:16.267Z,18.58
2022-10-10T12:51:43.319Z,18.80
2022-10-10T12:54:21.845Z,18.95
2022-10-10T12:56:48.347Z,19.13
2022-10-10T12:59:24.382Z,18.85
2022-10-10T13:01:55.402Z,18.49
2022-10-10T13:04:22.339Z,19.06
2022-10-10T13:06:49.731Z,19.78
2022-10-10T13:09:31.077Z,19.15
2022-10-10T13:12:02.799Z,19.01
2022-10-10T13:14:43.974Z,18.90
2022-10-10T13:17:37.243Z,18.45
2022-10-10T13:20:05.399Z,18.92
2022-10-10T13:22:33.631Z,18.91
2022-10-10T13:25:00.738Z,19.28
2022-10-10T13:27:32.675Z,19.34
2022-10-10T13:29:59.764Z,19.23
2022-10-10T13:32:29.636Z,18.89
2022-10-10T13:35:05.111Z,19.20
2022-10-10T13:37:31.950Z,18.76
2022-10-10T13:39:58.578Z,18.90
2022-10-10T13:42:29.312Z,19.05
2022-10-10T13:44:56.582Z,18.32
2022-10-10T13:47:44.963Z,18.75
2022-10-10T13:50:43.852Z,18.50
2022-10-10T13:53:29.622Z,18.40
2022-10-10T13:55:59.186Z,18.49
2022-10-10T13:58:31.417Z,18.81
2022-10-10T14:01:00.447Z,18.75
2022-10-10T14:03:28.024Z,18.43
2022-10-10T14:05:54.584Z,18.37
2022-10-10T14:08:25.776Z,18.75
2022-10-10T14:11:02.363Z,18.96
2022-10-10T14:13:30.710Z,18.40
2022-10-10T14:16:22.991Z,18.74
2022-10-10T14:18:49.532Z,18.56
2022-10-10T14:21:16.011Z,18.60
2022-10-10T14:23:42.471Z,18.54
2022-10-10T14:26:15.240Z,18.17
2022-10-10T14:28:42.191Z,18.23
2022-10-10T14:31:08.781Z,18.52
2022-10-10T14:33:35.524Z,18.00
2022-10-10T14:36:02.178Z,18.06
2022-10-10T14:38:28.637Z,18.58
2022-10-10T14:40:55.816Z,18.44
2022-10-10T14:43:23.623Z,18.60
2022-10-10T14:45:52.238Z,18.23
2022-10-10T14:48:18.914Z,18.35
2022-10-10T14:50:47.660Z,18.35
2022-10-10T14:53:14.873Z,18.18
2022-10-10T14:55:45.875Z,17.70
2022-10-10T14:58:22.368Z,18.19
2022-10-10T15:00:51.054Z,17.79
2022-10-10T15:03:17.642Z,17.54
2022-10-10T15:05:44.245Z,17.70
2022-10-10T15:08:14.153Z,17.57
2022-10-10T15:10:41.367Z,17.94
2022-10-10T15:13:08.164Z,17.70
2022-10-10T15:15:34.713Z,17.88
2022-10-10T15:18:01.264Z,17.96
2022-10-10T15:20:31.170Z,17.93
2022-10-10T15:23:03.580Z,17.83
2022-10-10T15:25:33.678Z,17.75
2022-10-10T15:28:01.465Z,17.91
2022-10-10T15:30:28.252Z,17.62
2022-10-10T15:32:54.690Z,17.69
2022-10-10T15:35:23.029Z,18.05
2022-10-10T15:37:49.512Z,18.09
2022-10-10T15:40:19.707Z,18.19
2022-10-10T15:42:47.186Z,18.18
2022-10-10T15:45:22.630Z,17.73
2022-10-10T15:47:58.633Z,17.42
2022-10-10T15:50:27.069Z,17.27
2022-10-10T15:52:53.639Z,16.73
2022-10-10T15:55:20.111Z,16.79
2022-10-10T15:57:46.550Z,16.84
2022-10-10T16:00:13.783Z,16.42
2022-10-10T16:02:40.240Z,16.67
2022-10-10T16:05:08.553Z,16.65
2022-10-10T16:07:42.224Z,16.43
2022-10-10T16:10:13.352Z,16.74
2022-10-10T16:12:39.784Z,16.31
2022-10-10T16:15:07.433Z,16.35
2022-10-10T16:17:34.154Z,16.26
2022-10-10T16:20:00.613Z,15.82
2022-10-10T16:22:27.082Z,15.70
2022-10-10T16:25:17.335Z,16.13
2022-10-10T16:27:40.203Z,15.81
2022-10-10T16:30:07.561Z,16.46
2022-10-10T16:32:37.986Z,16.25
2022-10-10T16:35:07.804Z,16.14
2022-10-10T16:37:34.374Z,16.35
2022-10-10T16:40:00.910Z,16.19
2022-10-10T16:42:28.325Z,16.14
2022-10-10T16:44:54.820Z,15.77
2022-10-10T16:47:21.311Z,15.89
2022-10-10T16:49:47.758Z,16.05
2022-10-10T16:52:14.198Z,16.02
2022-10-10T16:54:40.656Z,15.90
2022-10-10T16:57:07.078Z,15.91
2022-10-10T16:59:34.844Z,15.30
2022-10-10T17:02:01.433Z,15.70
2022-10-10T17:04:27.903Z,15.41
2022-10-10T17:06:54.351Z,15.37
2022-10-10T17:09:22.669Z,15.41
2022-10-10T17:11:51.493Z,15.68
2022-10-10T17:14:18.262Z,15.53
2022-10-10T17:17:11.780Z,15.29
2022-10-10T17:19:32.026Z,15.12
2022-10-10T17:21:59.420Z,14.33
2022-10-10T17:24:25.908Z,13.79
2022-10-10T17:26:53.141Z,13.04
2022-10-10T17:29:20.621Z,13.04
2022-10-10T17:31:47.165Z,12.96
2022-10-10T17:34:13.880Z,12.94
2022-10-10T17:36:40.931Z,12.69
2022-10-10T17:39:08.309Z,13.04
2022-10-10T17:41:34.832Z,12.84
2022-10-10T17:44:01.352Z,12.83
2022-10-10T17:46:34.887Z,12.60
2022-10-10T17:49:04.767Z,12.85
2022-10-10T17:51:31.299Z,13.10
2022-10-10T17:54:01.734Z,13.04
2022-10-10T17:56:28.849Z,13.16
2022-10-10T17:58:56.692Z,13.25
2022-10-10T18:01:23.346Z,13.32
2022-10-10T18:03:50.192Z,13.37
2022-10-10T18:06:21.606Z,13.17
2022-10-10T18:08:49.265Z,13.24
2022-10-10T18:11:17.920Z,13.23
2022-10-10T18:13:44.365Z,13.57
2022-10-10T18:16:13.975Z,13.72
2022-10-10T18:18:43.794Z,13.31
2022-10-10T18:21:13.867Z,13.36
2022-10-10T18:23:42.209Z,13.27
2022-10-10T18:26:15.295Z,13.60
2022-10-10T18:28:45.306Z,13.23
2022-10-10T18:31:14.880Z,13.71
2022-10-10T18:33:42.471Z,13.73
2022-10-10T18:36:12.849Z,13.28
2022-10-10T18:38:39.412Z,13.66
2022-10-10T18:41:12.158Z,13.70
2022-10-10T18:43:39.718Z,13.15
2022-10-10T18:46:08.756Z,13.26
2022-10-10T18:48:36.145Z,13.52
2022-10-10T18:51:04.923Z,13.30
2022-10-10T18:53:31.851Z,13.18
2022-10-10T18:56:00.498Z,13.06
2022-10-10T18:58:27.751Z,13.35
2022-10-10T19:01:02.532Z,13.58
2022-10-10T19:03:29.489Z,13.42
2022-10-10T19:05:56.125Z,13.52
2022-10-10T19:08:22.633Z,13.37
2022-10-10T19:10:50.361Z,13.46
2022-10-10T19:13:17.654Z,13.50
2022-10-10T19:15:44.549Z,13.42
2022-10-10T19:18:10.995Z,13.30
2022-10-10T19:20:39.198Z,13.49
2022-10-10T19:23:06.332Z,13.34
2022-10-10T19:25:37.810Z,13.49
2022-10-10T19:28:05.757Z,13.10
2022-10-10T19:30:33.342Z,13.02
2022-10-10T19:32:59.843Z,13.08
2022-10-10T19:35:26.269Z,13.19
2022-10-10T19:37:52.948Z,13.23
2022-10-10T19:40:19.384Z,13.02
2022-10-10T19:42:45.841Z,13.02
2022-10-10T19:45:12.268Z,12.80
2022-10-10T19:47:38.730Z,12.80
2022-10-10T19:50:05.739Z,12.90
2022-10-10T19:52:32.403Z,12.89
2022-10-10T19:54:58.857Z,13.06
2022-10-10T19:57:25.483Z,12.95
2022-10-10T19:59:52.226Z,12.93
2022-10-10T20:02:18.693Z,12.70
2022-10-10T20:04:45.142Z,12.65
2022-10-10T20:07:11.686Z,12.77
2022-10-10T20:09:38.158Z,12.80
2022-10-10T20:12:04.750Z,12.84
2022-10-10T20:14:31.885Z,12.85
2022-10-10T20:16:58.394Z,12.63
2022-10-10T20:19:24.878Z,12.82
2022-10-10T20:21:51.353Z,12.71
2022-10-10T20:24:18.092Z,12.68
2022-10-10T20:26:44.589Z,12.67
2022-10-10T20:29:11.047Z,12.68
2022-10-10T20:31:37.747Z,12.41
2022-10-10T20:34:05.589Z,12.71
2022-10-10T20:36:33.733Z,12.52
2022-10-10T20:39:04.820Z,12.48
2022-10-10T20:41:32.638Z,12.70
2022-10-10T20:44:02.065Z,12.35
2022-10-10T20:46:31.714Z,12.44
2022-10-10T20:48:59.922Z,12.37
2022-10-10T20:51:27.555Z,12.41
2022-10-10T20:53:57.340Z,12.31
2022-10-10T20:56:24.224Z,12.42
2022-10-10T20:58:50.710Z,12.28
2022-10-10T21:01:22.813Z,12.24
2022-10-10T21:03:49.513Z,12.45
2022-10-10T21:06:25.021Z,12.30
2022-10-10T21:08:52.805Z,12.47
2022-10-10T21:11:23.514Z,12.56
2022-10-10T21:13:56.527Z,12.51
2022-10-10T21:16:25.303Z,12.23
2022-10-10T21:18:57.490Z,12.34
2022-10-10T21:21:25.940Z,12.51
2022-10-10T21:23:56.030Z,12.40
2022-10-10T21:26:24.409Z,12.38
2022-10-10T21:28:51.355Z,12.34
2022-10-10T21:31:20.237Z,12.22
2022-10-10T21:33:48.192Z,12.20
2022-10-10T21:36:15.955Z,12.15
2022-10-10T21:38:42.864Z,12.06
2022-10-10T21:41:12.090Z,11.99
2022-10-10T21:43:40.259Z,12.10
2022-10-10T21:46:10.442Z,11.96
2022-10-10T21:48:36.964Z,11.91
2022-10-10T21:51:03.664Z,11.77
2022-10-10T21:53:30.177Z,11.92
2022-10-10T21:55:56.776Z,11.87
2022-10-10T21:58:23.704Z,11.74
2022-10-10T22:00:50.941Z,11.91
2022-10-10T22:03:17.564Z,11.79
2022-10-10T22:05:44.810Z,11.92
2022-10-10T22:08:11.414Z,11.43
2022-10-10T22:10:40.743Z,11.69
2022-10-10T22:13:07.279Z,11.65
2022-10-10T22:15:33.994Z,11.48
2022-10-10T22:18:00.449Z,11.34
2022-10-10T22:20:26.909Z,11.53
2022-10-10T22:22:53.371Z,11.77
2022-10-10T22:25:19.972Z,11.68
2022-10-10T22:27:46.534Z,11.77
2022-10-10T22:30:13.539Z,11.79
2022-10-10T22:32:40.234Z,11.77
2022-10-10T22:35:07.017Z,11.53
2022-10-10T22:37:33.509Z,11.76
2022-10-10T22:39:59.970Z,11.80
2022-10-10T22:42:26.456Z,11.63
2022-10-10T22:44:52.946Z,11.62
2022-10-10T22:47:19.546Z,11.81
2022-10-10T22:49:46.005Z,11.86
2022-10-10T22:52:12.454Z,11.65
2022-10-10T22:54:38.905Z,11.44
2022-10-10T22:57:05.364Z,11.60
2022-10-10T22:59:31.842Z,11.56
2022-10-10T23:01:58.354Z,11.51
2022-10-10T23:04:24.838Z,11.63
2022-10-10T23:06:51.319Z,11.16
2022-10-10T23:09:17.974Z,11.42
2022-10-10T23:11:44.452Z,11.51
2022-10-10T23:14:10.918Z,11.41
2022-10-10T23:16:40.526Z,11.38
2022-10-10T23:19:07.552Z,11.31
2022-10-10T23:21:34.081Z,11.24
2022-10-10T23:24:00.525Z,11.45
2022-10-10T23:26:26.995Z,11.55
2022-10-10T23:28:53.492Z,11.38
2022-10-10T23:31:20.053Z,11.03
2022-10-10T23:33:46.487Z,11.16
2022-10-10T23:36:14.253Z,11.11
2022-10-10T23:38:41.275Z,10.94
2022-10-10T23:41:09.158Z,11.19
2022-10-10T23:43:35.765Z,11.33
2022-10-10T23:46:02.613Z,11.17
2022-10-10T23:48:29.446Z,11.16
2022-10-10T23:50:56.140Z,11.15
2022-10-10T23:53:22.576Z,11.13
2022-10-10T23:55:49.088Z,11.18
2022-10-10T23:58:15.594Z,11.08
